createdAt,value
2023-04-06T00:02:07.140Z,101272.31
2023-04-06T00:04:33.646Z,101261.88
2023-04-06T00:07:00.047Z,101266.97
2023-04-06T00:09:26.652Z,101261.72
2023-04-06T00:11:53.033Z,101260.91
2023-04-06T00:14:19.497Z,101255.59
2023-04-06T00:16:46.233Z,101253.88
2023-04-06T00:19:12.699Z,101253.78
2023-04-06T00:21:39.409Z,101250.28
2023-04-06T00:24:06.069Z,101251.19
2023-04-06T00:26:32.458Z,101257.16
2023-04-06T00:28:59.928Z,101253.63
2023-04-06T00:31:26.428Z,101252.72
2023-04-06T00:33:52.860Z,101248.38
2023-04-06T00:36:19.375Z,101249.19
2023-04-06T00:38:46.118Z,101251.00
2023-04-06T00:41:12.609Z,101237.25
2023-04-06T00:43:39.045Z,101246.69
2023-04-06T00:46:06.303Z,101249.19
2023-04-06T00:48:33.777Z,101240.53
2023-04-06T00:51:00.294Z,101235.31
2023-04-06T00:53:26.762Z,101233.50
2023-04-06T00:55:53.186Z,101237.69
2023-04-06T00:58:19.578Z,101229.81
2023-04-06T01:00:46.194Z,101225.47
2023-04-06T01:03:12.643Z,101225.47
2023-04-06T01:05:41.484Z,101230.59
2023-04-06T01:08:08.762Z,101219.31
2023-04-06T01:10:35.280Z,101217.56
2023-04-06T01:13:01.663Z,101219.28
2023-04-06T01:15:28.328Z,101215.72
2023-04-06T01:17:54.760Z,101222.53
2023-04-06T01:20:21.497Z,101218.34
2023-04-06T01:22:48.120Z,101208.94
2023-04-06T01:25:14.550Z,101213.09
2023-04-06T01:27:41.065Z,101213.03
2023-04-06T01:30:07.963Z,101212.22
2023-04-06T01:32:34.463Z,101208.78
2023-04-06T01:35:01.305Z,101204.44
2023-04-06T01:37:27.724Z,101211.25
2023-04-06T01:39:54.196Z,101210.38
2023-04-06T01:42:20.877Z,101212.19
2023-04-06T01:44:47.464Z,101209.41
2023-04-06T01:47:13.869Z,101208.44
2023-04-06T01:49:40.455Z,101203.19
2023-04-06T01:52:07.323Z,101210.16
2023-04-06T01:54:33.760Z,101198.88
2023-04-06T01:57:00.455Z,101202.34
2023-04-06T01:59:27.176Z,101197.97
2023-04-06T02:01:53.608Z,101199.50
2023-04-06T02:04:20.007Z,101199.44
2023-04-06T02:06:46.419Z,101192.53
2023-04-06T02:09:12.844Z,101194.22
2023-04-06T02:11:39.269Z,101192.41
2023-04-06T02:14:05.984Z,101195.69
2023-04-06T02:16:32.452Z,101198.28
2023-04-06T02:18:58.861Z,101192.28
2023-04-06T02:21:25.430Z,101200.00
2023-04-06T02:23:51.882Z,101195.69
2023-04-06T02:26:18.275Z,101200.81
2023-04-06T02:28:44.875Z,101197.34
2023-04-06T02:31:11.982Z,101193.88
2023-04-06T02:33:38.472Z,101193.88
2023-04-06T02:36:05.376Z,101192.16
2023-04-06T02:38:31.860Z,101183.50
2023-04-06T02:40:58.307Z,101174.91
2023-04-06T02:43:24.718Z,101182.59
2023-04-06T02:45:51.368Z,101185.16
2023-04-06T02:48:17.773Z,101179.03
2023-04-06T02:50:44.539Z,101181.63
2023-04-06T02:53:10.929Z,101179.72
2023-04-06T02:55:37.325Z,101171.75
2023-04-06T02:58:03.772Z,101165.44
2023-04-06T03:00:30.152Z,101167.25
2023-04-06T03:02:56.660Z,101171.66
2023-04-06T03:05:23.381Z,101180.22
2023-04-06T03:07:49.758Z,101171.53
2023-04-06T03:10:16.497Z,101167.25
2023-04-06T03:12:43.091Z,101169.78
2023-04-06T03:15:10.478Z,101168.09
2023-04-06T03:17:36.991Z,101162.00
2023-04-06T03:20:04.689Z,101162.94
2023-04-06T03:22:31.357Z,101169.00
2023-04-06T03:24:57.778Z,101169.00
2023-04-06T03:27:24.172Z,101180.97
2023-04-06T03:29:50.671Z,101173.16
2023-04-06T03:32:17.031Z,101171.31
2023-04-06T03:34:43.626Z,101170.44
2023-04-06T03:37:11.049Z,101176.41
2023-04-06T03:39:37.654Z,101175.53
2023-04-06T03:42:04.195Z,101168.63
2023-04-06T03:44:30.744Z,101173.78
2023-04-06T03:46:57.219Z,101177.13
2023-04-06T03:49:23.796Z,101175.38
2023-04-06T03:51:50.301Z,101181.28
2023-04-06T03:54:16.691Z,101182.00
2023-04-06T03:56:43.383Z,101178.63
2023-04-06T03:59:10.058Z,101182.03
2023-04-06T04:01:36.843Z,101178.53
2023-04-06T04:04:03.376Z,101183.69
2023-04-06T04:06:29.842Z,101188.75
2023-04-06T04:08:56.234Z,101192.13
2023-04-06T04:11:22.936Z,101180.94
2023-04-06T04:13:49.388Z,101197.13
2023-04-06T04:16:15.819Z,101196.22
2023-04-06T04:18:44.839Z,101197.88
2023-04-06T04:21:11.313Z,101200.44
2023-04-06T04:23:37.757Z,101205.41
2023-04-06T04:26:04.301Z,101200.34
2023-04-06T04:28:30.902Z,101208.91
2023-04-06T04:30:57.290Z,101212.25
2023-04-06T04:33:23.848Z,101212.97
2023-04-06T04:35:50.334Z,101208.72
2023-04-06T04:38:16.788Z,101211.25
2023-04-06T04:40:43.418Z,101204.50
2023-04-06T04:43:09.800Z,101207.94
2023-04-06T04:45:36.229Z,101207.88
2023-04-06T04:48:02.795Z,101207.00
2023-04-06T04:50:29.252Z,101210.34
2023-04-06T04:52:55.650Z,101210.31
2023-04-06T04:55:22.263Z,101215.56
2023-04-06T04:57:48.646Z,101217.38
2023-04-06T05:00:15.462Z,101211.31
2023-04-06T05:02:42.175Z,101208.72
2023-04-06T05:05:09.189Z,101208.72
2023-04-06T05:07:35.807Z,101212.25
2023-04-06T05:10:02.232Z,101201.94
2023-04-06T05:12:28.644Z,101208.81
2023-04-06T05:14:55.215Z,101200.19
2023-04-06T05:17:21.699Z,101207.19
2023-04-06T05:19:48.094Z,101202.09
2023-04-06T05:22:17.139Z,101208.97
2023-04-06T05:24:43.611Z,101204.72
2023-04-06T05:27:10.196Z,101197.13
2023-04-06T05:29:36.607Z,101193.84
2023-04-06T05:32:03.396Z,101183.63
2023-04-06T05:34:29.787Z,101181.16
2023-04-06T05:36:56.236Z,101181.94
2023-04-06T05:39:22.682Z,101185.47
2023-04-06T05:41:50.062Z,101184.66
2023-04-06T05:44:16.531Z,101181.28
2023-04-06T05:46:43.164Z,101178.84
2023-04-06T05:49:09.997Z,101177.25
2023-04-06T05:51:36.569Z,101182.50
2023-04-06T05:54:03.330Z,101181.78
2023-04-06T05:56:31.256Z,101183.59
2023-04-06T05:58:57.732Z,101182.94
2023-04-06T06:01:24.348Z,101177.81
2023-04-06T06:03:50.771Z,101180.50
2023-04-06T06:06:17.195Z,101173.69
2023-04-06T06:08:43.858Z,101178.00
2023-04-06T06:11:10.458Z,101179.72
2023-04-06T06:13:36.895Z,101172.03
2023-04-06T06:16:06.259Z,101169.53
2023-04-06T06:18:33.237Z,101169.53
2023-04-06T06:20:59.725Z,101168.91
2023-04-06T06:23:26.216Z,101174.31
2023-04-06T06:25:52.704Z,101181.44
2023-04-06T06:28:19.108Z,101175.47
2023-04-06T06:30:45.688Z,101183.44
2023-04-06T06:33:12.126Z,101186.09
2023-04-06T06:35:38.675Z,101181.03
2023-04-06T06:38:05.485Z,101181.25
2023-04-06T06:40:31.981Z,101177.06
2023-04-06T06:42:58.468Z,101175.56
2023-04-06T06:45:26.542Z,101183.53
2023-04-06T06:47:55.098Z,101191.44
2023-04-06T06:50:22.188Z,101187.13
2023-04-06T06:52:48.844Z,101185.66
2023-04-06T06:55:16.219Z,101185.81
2023-04-06T06:57:43.427Z,101191.25
2023-04-06T07:00:12.923Z,101188.75
2023-04-06T07:02:40.073Z,101183.84
2023-04-06T07:05:19.977Z,101189.13
2023-04-06T07:07:50.812Z,101176.22
2023-04-06T07:10:17.229Z,101183.22
2023-04-06T07:12:43.643Z,101178.16
2023-04-06T07:15:10.404Z,101180.81
2023-04-06T07:17:36.936Z,101181.84
2023-04-06T07:20:03.655Z,101182.06
2023-04-06T07:22:30.192Z,101189.41
2023-04-06T07:24:56.788Z,101193.13
2023-04-06T07:27:23.239Z,101200.13
2023-04-06T07:29:49.849Z,101196.25
2023-04-06T07:32:16.269Z,101193.84
2023-04-06T07:34:42.684Z,101198.34
2023-04-06T07:37:09.105Z,101196.06
2023-04-06T07:39:35.749Z,101192.81
2023-04-06T07:42:02.303Z,101198.94
2023-04-06T07:44:29.091Z,101199.81
2023-04-06T07:46:55.820Z,101199.09
2023-04-06T07:49:22.375Z,101196.56
2023-04-06T07:51:48.842Z,101194.88
2023-04-06T07:54:18.318Z,101199.25
2023-04-06T07:56:44.727Z,101201.06
2023-04-06T07:59:12.338Z,101195.06
2023-04-06T08:01:39.119Z,101195.94
2023-04-06T08:04:05.739Z,101189.97
2023-04-06T08:06:32.410Z,101188.28
2023-04-06T08:08:58.819Z,101184.84
2023-04-06T08:11:25.549Z,101190.06
2023-04-06T08:13:52.188Z,101191.88
2023-04-06T08:16:18.675Z,101183.19
2023-04-06T08:18:45.299Z,101190.19
2023-04-06T08:21:11.930Z,101190.16
2023-04-06T08:23:38.327Z,101183.25
2023-04-06T08:26:04.768Z,101189.31
2023-04-06T08:28:31.196Z,101179.75
2023-04-06T08:30:57.683Z,101182.38
2023-04-06T08:33:24.139Z,101179.75
2023-04-06T08:35:50.856Z,101189.31
2023-04-06T08:38:17.299Z,101177.97
2023-04-06T08:40:45.290Z,101189.25
2023-04-06T08:43:14.290Z,101181.38
2023-04-06T08:45:41.600Z,101186.56
2023-04-06T08:48:08.105Z,101191.78
2023-04-06T08:50:35.210Z,101183.06
2023-04-06T08:53:01.675Z,101181.31
2023-04-06T08:55:28.110Z,101181.22
2023-04-06T08:57:55.909Z,101182.06
2023-04-06T09:00:22.391Z,101173.34
2023-04-06T09:02:50.617Z,101174.97
2023-04-06T09:05:17.343Z,101175.88
2023-04-06T09:07:43.821Z,101185.34
2023-04-06T09:10:10.268Z,101186.19
2023-04-06T09:12:37.130Z,101183.59
2023-04-06T09:15:03.820Z,101186.19
2023-04-06T09:17:31.329Z,101178.25
2023-04-06T09:19:58.038Z,101179.91
2023-04-06T09:22:26.578Z,101176.41
2023-04-06T09:24:53.929Z,101182.41
2023-04-06T09:27:39.161Z,101173.56
2023-04-06T09:30:09.683Z,101174.34
2023-04-06T09:32:56.251Z,101164.84
2023-04-06T09:35:22.982Z,101170.91
2023-04-06T09:37:50.549Z,101163.75
2023-04-06T09:40:18.684Z,101153.25
2023-04-06T09:42:48.891Z,101155.63
2023-04-06T09:45:15.441Z,101155.44
2023-04-06T09:47:45.556Z,101158.94
2023-04-06T09:50:13.628Z,101155.41
2023-04-06T09:52:51.380Z,101146.59
2023-04-06T09:55:27.123Z,101153.47
2023-04-06T09:58:03.920Z,101145.56
2023-04-06T10:00:30.391Z,101144.63
2023-04-06T10:03:02.719Z,101144.75
2023-04-06T10:05:29.524Z,101133.50
2023-04-06T10:08:01.431Z,101137.81
2023-04-06T10:10:31.548Z,101148.91
2023-04-06T10:12:58.532Z,101146.13
2023-04-06T10:15:25.495Z,101140.72
2023-04-06T10:17:52.382Z,101138.09
2023-04-06T10:20:22.795Z,101146.47
2023-04-06T10:23:03.097Z,101135.25
2023-04-06T10:25:33.489Z,101127.19
2023-04-06T10:28:06.660Z,101134.81
2023-04-06T10:30:33.887Z,101136.06
2023-04-06T10:33:00.385Z,101130.06
2023-04-06T10:35:37.663Z,101131.25
2023-04-06T10:38:04.621Z,101127.59
2023-04-06T10:40:32.516Z,101122.97
2023-04-06T10:43:21.297Z,101114.72
2023-04-06T10:45:57.826Z,101103.63
2023-04-06T10:48:24.986Z,101102.41
2023-04-06T10:50:53.335Z,101107.38
2023-04-06T10:53:23.794Z,101101.09
2023-04-06T10:55:53.925Z,101116.50
2023-04-06T10:58:20.595Z,101100.59
2023-04-06T11:00:50.758Z,101097.72
2023-04-06T11:03:18.006Z,101096.03
2023-04-06T11:05:50.910Z,101095.88
2023-04-06T11:08:31.451Z,101086.22
2023-04-06T11:11:07.859Z,101087.97
2023-04-06T11:13:41.414Z,101082.38
2023-04-06T11:16:08.086Z,101077.06
2023-04-06T11:18:34.520Z,101079.81
2023-04-06T11:21:01.184Z,101085.88
2023-04-06T11:23:27.952Z,101076.28
2023-04-06T11:25:54.794Z,101068.63
2023-04-06T11:28:21.320Z,101073.81
2023-04-06T11:30:47.901Z,101063.63
2023-04-06T11:33:21.928Z,101064.34
2023-04-06T11:35:48.587Z,101064.75
2023-04-06T11:38:15.305Z,101057.00
2023-04-06T11:40:41.811Z,101054.78
2023-04-06T11:43:12.412Z,101055.94
2023-04-06T11:45:45.103Z,101051.44
2023-04-06T11:48:21.256Z,101047.38
2023-04-06T11:50:48.651Z,101039.97
2023-04-06T11:53:15.043Z,101043.25
2023-04-06T11:55:41.735Z,101038.13
2023-04-06T11:58:08.244Z,101039.56
2023-04-06T12:00:35.774Z,101030.06
2023-04-06T12:03:02.379Z,101031.25
2023-04-06T12:05:28.942Z,101031.91
2023-04-06T12:07:55.461Z,101028.34
2023-04-06T12:10:22.083Z,101029.59
2023-04-06T12:12:48.483Z,101031.19
2023-04-06T12:15:15.514Z,101039.97
2023-04-06T12:17:41.948Z,101032.97
2023-04-06T12:20:18.060Z,101029.53
2023-04-06T12:22:51.532Z,101033.06
2023-04-06T12:25:18.043Z,101019.94
2023-04-06T12:27:44.459Z,101024.31
2023-04-06T12:30:11.327Z,101012.44
2023-04-06T12:32:37.791Z,101014.41
2023-04-06T12:35:04.580Z,101007.19
2023-04-06T12:37:31.441Z,101001.94
2023-04-06T12:39:57.897Z,101003.19
2023-04-06T12:42:24.326Z,101001.19
2023-04-06T12:44:50.817Z,100992.59
2023-04-06T12:47:17.685Z,100989.72
2023-04-06T12:49:44.638Z,100987.41
2023-04-06T12:52:11.391Z,100989.13
2023-04-06T12:54:37.810Z,100978.47
2023-04-06T12:57:04.242Z,100980.13
2023-04-06T12:59:35.782Z,100964.63
2023-04-06T13:02:02.395Z,100985.25
2023-04-06T13:04:28.832Z,100972.31
2023-04-06T13:06:55.585Z,100969.47
2023-04-06T13:09:22.011Z,100967.34
2023-04-06T13:11:48.450Z,100969.97
2023-04-06T13:14:15.390Z,100975.47
2023-04-06T13:16:41.842Z,100971.13
2023-04-06T13:19:08.224Z,100973.75
2023-04-06T13:21:34.692Z,100968.47
2023-04-06T13:24:01.198Z,100956.53
2023-04-06T13:26:27.580Z,100958.00
2023-04-06T13:28:54.197Z,100955.97
2023-04-06T13:31:20.643Z,100947.31
2023-04-06T13:33:47.122Z,100946.69
2023-04-06T13:36:14.653Z,100945.34
2023-04-06T13:38:42.466Z,100955.59
2023-04-06T13:41:09.090Z,100943.25
2023-04-06T13:43:35.849Z,100938.00
2023-04-06T13:46:02.424Z,100924.97
2023-04-06T13:48:28.988Z,100931.31
2023-04-06T13:50:56.221Z,100925.66
2023-04-06T13:53:22.595Z,100936.19
2023-04-06T13:55:56.023Z,100938.53
2023-04-06T13:58:22.544Z,100927.16
2023-04-06T14:00:49.205Z,100927.13
2023-04-06T14:03:15.948Z,100928.69
2023-04-06T14:05:42.530Z,100921.53
2023-04-06T14:08:08.874Z,100922.50
2023-04-06T14:10:41.876Z,100924.31
2023-04-06T14:13:08.575Z,100917.53
2023-04-06T14:15:35.564Z,100923.69
2023-04-06T14:18:02.425Z,100921.72
2023-04-06T14:20:29.500Z,100915.63
2023-04-06T14:22:57.009Z,100910.19
2023-04-06T14:25:23.391Z,100913.44
2023-04-06T14:27:50.017Z,100908.09
2023-04-06T14:30:16.668Z,100905.38
2023-04-06T14:32:43.108Z,100911.16
2023-04-06T14:35:09.885Z,100906.88
2023-04-06T14:37:36.360Z,100901.25
2023-04-06T14:40:04.181Z,100911.31
2023-04-06T14:42:30.693Z,100902.41
2023-04-06T14:44:57.068Z,100899.88
2023-04-06T14:47:23.892Z,100896.25
2023-04-06T14:49:51.744Z,100889.47
2023-04-06T14:52:18.172Z,100893.25
2023-04-06T14:54:44.651Z,100894.22
2023-04-06T14:57:11.228Z,100897.84
2023-04-06T14:59:39.951Z,100897.53
2023-04-06T15:02:07.017Z,100895.38
2023-04-06T15:04:35.374Z,100895.38
2023-04-06T15:07:01.814Z,100889.41
2023-04-06T15:09:28.170Z,100891.28
2023-04-06T15:11:54.772Z,100886.22
2023-04-06T15:14:21.155Z,100888.97
2023-04-06T15:16:47.515Z,100888.06
2023-04-06T15:19:14.111Z,100897.81
2023-04-06T15:21:40.507Z,100891.03
2023-04-06T15:24:09.411Z,100887.75
2023-04-06T15:26:37.850Z,100887.44
2023-04-06T15:29:04.479Z,100881.31
2023-04-06T15:31:37.581Z,100881.34
2023-04-06T15:34:05.222Z,100886.13
2023-04-06T15:36:31.682Z,100885.72
2023-04-06T15:38:58.278Z,100882.91
2023-04-06T15:41:26.504Z,100881.66
2023-04-06T15:43:53.388Z,100876.09
2023-04-06T15:46:20.232Z,100880.47
2023-04-06T15:48:46.839Z,100868.41
2023-04-06T15:51:13.417Z,100876.03
2023-04-06T15:53:39.808Z,100886.81
2023-04-06T15:56:06.959Z,100878.09
2023-04-06T15:58:33.636Z,100880.47
2023-04-06T16:01:00.298Z,100878.53
2023-04-06T16:03:26.906Z,100875.47
2023-04-06T16:06:04.648Z,100880.81
2023-04-06T16:08:35.113Z,100879.06
2023-04-06T16:11:01.640Z,100875.47
2023-04-06T16:13:28.000Z,100886.25
2023-04-06T16:15:54.448Z,100886.19
2023-04-06T16:18:20.820Z,100882.31
2023-04-06T16:20:47.201Z,100872.41
2023-04-06T16:23:13.756Z,100870.53
2023-04-06T16:25:40.283Z,100874.66
2023-04-06T16:28:07.189Z,100889.41
2023-04-06T16:30:37.626Z,100880.22
2023-04-06T16:33:04.075Z,100882.69
2023-04-06T16:35:30.497Z,100867.69
2023-04-06T16:37:57.030Z,100875.94
2023-04-06T16:40:23.436Z,100882.53
2023-04-06T16:42:49.774Z,100885.72
2023-04-06T16:45:16.863Z,100880.84
2023-04-06T16:47:43.289Z,100891.09
2023-04-06T16:50:10.629Z,100884.81
2023-04-06T16:52:37.157Z,100885.97
2023-04-06T16:55:03.700Z,100888.50
2023-04-06T16:57:30.225Z,100888.59
2023-04-06T16:59:56.881Z,100883.56
2023-04-06T17:02:24.112Z,100875.56
2023-04-06T17:04:50.691Z,100884.69
2023-04-06T17:07:17.156Z,100892.75
2023-04-06T17:09:43.627Z,100898.16
2023-04-06T17:12:10.028Z,100891.50
2023-04-06T17:14:36.421Z,100899.13
2023-04-06T17:17:03.861Z,100893.59
2023-04-06T17:19:30.256Z,100892.97
2023-04-06T17:21:56.800Z,100891.13
2023-04-06T17:24:23.142Z,100894.34
2023-04-06T17:26:49.519Z,100894.56
2023-04-06T17:29:16.080Z,100895.50
2023-04-06T17:31:45.041Z,100911.00
2023-04-06T17:34:11.483Z,100913.56
2023-04-06T17:36:38.229Z,100910.00
2023-04-06T17:39:04.689Z,100914.56
2023-04-06T17:41:32.705Z,100915.53
2023-04-06T17:43:59.069Z,100916.84
2023-04-06T17:46:25.673Z,100920.47
2023-04-06T17:48:53.121Z,100918.06
2023-04-06T17:51:20.804Z,100921.03
2023-04-06T17:53:47.282Z,100931.81
2023-04-06T17:56:13.659Z,100929.31
2023-04-06T17:58:40.517Z,100926.09
2023-04-06T18:01:08.543Z,100927.50
2023-04-06T18:03:35.081Z,100927.63
2023-04-06T18:06:14.600Z,100931.38
2023-04-06T18:08:41.537Z,100940.56
2023-04-06T18:11:08.019Z,100934.63
2023-04-06T18:13:36.222Z,100935.63
2023-04-06T18:16:04.781Z,100939.34
2023-04-06T18:18:31.495Z,100942.97
2023-04-06T18:20:58.033Z,100943.22
2023-04-06T18:23:24.383Z,100939.78
2023-04-06T18:25:50.983Z,100950.41
2023-04-06T18:28:17.780Z,100962.31
2023-04-06T18:30:44.167Z,100963.56
2023-04-06T18:33:10.561Z,100962.13
2023-04-06T18:35:38.237Z,100957.66
2023-04-06T18:38:04.639Z,100960.41
2023-04-06T18:40:32.224Z,100963.78
2023-04-06T18:42:58.810Z,100966.59
2023-04-06T18:45:26.262Z,100967.63
2023-04-06T18:47:52.660Z,100969.44
2023-04-06T18:50:19.203Z,100980.16
2023-04-06T18:52:45.542Z,100971.47
2023-04-06T18:55:11.957Z,100968.09
2023-04-06T18:57:38.432Z,100972.53
2023-04-06T19:00:05.575Z,100975.38
2023-04-06T19:02:32.925Z,100970.19
2023-04-06T19:04:59.859Z,100976.38
2023-04-06T19:07:26.978Z,100986.97
2023-04-06T19:09:53.353Z,100977.47
2023-04-06T19:12:19.763Z,100984.50
2023-04-06T19:14:51.454Z,100990.09
2023-04-06T19:17:18.381Z,100990.09
2023-04-06T19:19:45.296Z,100990.22
2023-04-06T19:22:12.996Z,100987.78
2023-04-06T19:24:39.571Z,100986.06
2023-04-06T19:27:06.150Z,100982.63
2023-04-06T19:29:32.505Z,100992.25
2023-04-06T19:31:59.687Z,100984.44
2023-04-06T19:34:26.764Z,100990.84
2023-04-06T19:36:53.477Z,100991.81
2023-04-06T19:39:20.059Z,100998.75
2023-04-06T19:41:46.599Z,100994.41
2023-04-06T19:44:12.977Z,101004.94
2023-04-06T19:46:39.481Z,101001.53
2023-04-06T19:49:05.893Z,100994.88
2023-04-06T19:51:33.355Z,101000.22
2023-04-06T19:54:00.749Z,101006.31
2023-04-06T19:56:27.545Z,101008.94
2023-04-06T19:58:53.921Z,101001.09
2023-04-06T20:01:20.389Z,101006.34
2023-04-06T20:03:47.800Z,101002.28
2023-04-06T20:06:14.309Z,101003.28
2023-04-06T20:08:40.842Z,100993.66
2023-04-06T20:11:09.951Z,100995.53
2023-04-06T20:13:37.029Z,100990.28
2023-04-06T20:16:03.933Z,100997.22
2023-04-06T20:18:33.676Z,100996.28
2023-04-06T20:21:00.311Z,100995.28
2023-04-06T20:23:27.053Z,100996.91
2023-04-06T20:25:53.480Z,100996.84
2023-04-06T20:28:20.457Z,100998.59
2023-04-06T20:30:51.815Z,100990.94
2023-04-06T20:33:18.208Z,101002.25
2023-04-06T20:35:44.628Z,100995.28
2023-04-06T20:38:11.049Z,100990.91
2023-04-06T20:40:37.915Z,100984.00
2023-04-06T20:43:05.586Z,100985.81
2023-04-06T20:45:38.275Z,100993.66
2023-04-06T20:48:04.855Z,100990.16
2023-04-06T20:50:31.359Z,100995.41
2023-04-06T20:52:58.415Z,101000.72
2023-04-06T20:55:24.829Z,100988.53
2023-04-06T20:57:51.223Z,100997.31
2023-04-06T21:00:18.013Z,100997.44
2023-04-06T21:02:44.632Z,101001.78
2023-04-06T21:05:11.233Z,100995.78
2023-04-06T21:07:38.129Z,100992.31
2023-04-06T21:10:06.030Z,100993.28
2023-04-06T21:12:32.503Z,100997.69
2023-04-06T21:14:59.035Z,101001.13
2023-04-06T21:17:25.459Z,100995.94
2023-04-06T21:19:51.975Z,100992.41
2023-04-06T21:22:18.357Z,101001.13
2023-04-06T21:24:44.815Z,100997.69
2023-04-06T21:27:12.964Z,100992.53
2023-04-06T21:29:39.884Z,100986.50
2023-04-06T21:32:06.287Z,100988.22
2023-04-06T21:34:32.707Z,100991.81
2023-04-06T21:36:59.363Z,100991.03
2023-04-06T21:39:26.826Z,100988.38
2023-04-06T21:41:53.201Z,100982.31
2023-04-06T21:44:19.685Z,100989.28
2023-04-06T21:46:46.314Z,100994.53
2023-04-06T21:49:12.796Z,100986.66
2023-04-06T21:51:39.194Z,100985.84
2023-04-06T21:54:05.594Z,100984.13
2023-04-06T21:56:31.945Z,100984.13
2023-04-06T21:58:58.485Z,100991.25
2023-04-06T22:01:24.832Z,100992.09
2023-04-06T22:03:54.475Z,100986.94
2023-04-06T22:06:22.967Z,100979.13
2023-04-06T22:08:49.351Z,100976.50
2023-04-06T22:11:15.885Z,100980.75
2023-04-06T22:13:42.457Z,100972.16
2023-04-06T22:16:08.904Z,100973.97
2023-04-06T22:18:38.077Z,100973.19
2023-04-06T22:21:05.662Z,100965.41
2023-04-06T22:23:32.147Z,100970.56
2023-04-06T22:25:58.525Z,100975.78
2023-04-06T22:28:25.657Z,100972.34
2023-04-06T22:30:52.021Z,100975.84
2023-04-06T22:33:18.410Z,100976.75
2023-04-06T22:35:44.815Z,100986.38
2023-04-06T22:38:11.237Z,100974.25
2023-04-06T22:40:37.563Z,100974.25
2023-04-06T22:43:03.967Z,100979.50
2023-04-06T22:45:30.577Z,100982.97
2023-04-06T22:47:56.987Z,100979.47
2023-04-06T22:50:23.804Z,100980.44
2023-04-06T22:52:50.334Z,100983.97
2023-04-06T22:55:16.849Z,100979.66
2023-04-06T22:57:43.521Z,100984.94
2023-04-06T23:00:10.523Z,100984.94
2023-04-06T23:02:36.982Z,100978.06
2023-04-06T23:05:03.652Z,100982.41
2023-04-06T23:07:32.403Z,100978.94
2023-04-06T23:09:59.180Z,100981.56
2023-04-06T23:12:25.785Z,100984.16
2023-04-06T23:14:52.160Z,100986.81
2023-04-06T23:17:18.618Z,100985.94
2023-04-06T23:19:45.229Z,100988.56
2023-04-06T23:22:11.592Z,100988.66
2023-04-06T23:24:37.933Z,100985.16
2023-04-06T23:27:04.485Z,100982.56
2023-04-06T23:29:30.932Z,100983.41
2023-04-06T23:31:57.350Z,100979.06
2023-04-06T23:34:23.934Z,100982.50
2023-04-06T23:36:50.308Z,100979.03
2023-04-06T23:39:16.696Z,100981.63
2023-04-06T23:41:43.361Z,100984.22
2023-04-06T23:44:09.709Z,100979.91
2023-04-06T23:46:36.325Z,100985.16
2023-04-06T23:49:02.916Z,100979.91
2023-04-06T23:51:29.291Z,100975.56
2023-04-06T23:53:55.750Z,100973.84
2023-04-06T23:56:22.327Z,100964.25
2023-04-06T23:58:48.667Z,100974.69
